Terminal Aerodrome Forecast
Issued by NWS

Home | Current Version | Previous Version | Text Only | Print | Product List | Glossary On
Versions: 1 2 3 4 5 6 7 8 9 10 11 12 13
000
FTUS44 KLZK 240532
TAFLLQ
TAF
KLLQ 240532Z 2406/2506 15006KT P6SM SCT250 WS020/19040KT
     FM241200 16008KT P6SM BKN050 BKN250 WS020/19040KT
     FM241400 16010G20KT P6SM BKN050 BKN250
     FM242100 17012G25KT P6SM VCTS BKN035CB OVC050
      TEMPO 2423/2503 3SM TSRA BR OVC035CB
     FM250300 17010G20KT P6SM VCTS SCT020CB OVC050=

USA.gov is the U.S. government's official web portal to all federal, state and local government web resources and services.